sensor_id;sensor_type;location;lat;lon;timestamp;temperature;humidity
10083;DHT22;5080;48.528;8.078;2023-04-03T00:02:02;8.60;99.90
10083;DHT22;5080;48.528;8.078;2023-04-03T00:04:29;8.50;99.90
10083;DHT22;5080;48.528;8.078;2023-04-03T00:06:57;8.50;99.90
10083;DHT22;5080;48.528;8.078;2023-04-03T00:09:24;8.60;99.90
10083;DHT22;5080;48.528;8.078;2023-04-03T00:11:51;8.50;99.90
10083;DHT22;5080;48.528;8.078;2023-04-03T00:14:18;8.50;99.90
10083;DHT22;5080;48.528;8.078;2023-04-03T00:16:45;8.50;99.90
10083;DHT22;5080;48.528;8.078;2023-04-03T00:19:12;8.50;99.90
10083;DHT22;5080;48.528;8.078;2023-04-03T00:21:39;8.50;99.90
10083;DHT22;5080;48.528;8.078;2023-04-03T00:24:08;8.50;99.90
10083;DHT22;5080;48.528;8.078;2023-04-03T00:26:34;8.40;99.90
10083;DHT22;5080;48.528;8.078;2023-04-03T00:29:01;8.40;99.90
10083;DHT22;5080;48.528;8.078;2023-04-03T00:31:28;8.30;99.90
10083;DHT22;5080;48.528;8.078;2023-04-03T00:33:55;8.30;99.90
10083;DHT22;5080;48.528;8.078;2023-04-03T00:36:22;8.40;99.90
10083;DHT22;5080;48.528;8.078;2023-04-03T00:38:49;8.40;99.90
10083;DHT22;5080;48.528;8.078;2023-04-03T00:41:17;8.40;99.90
10083;DHT22;5080;48.528;8.078;2023-04-03T00:43:44;8.30;99.90
10083;DHT22;5080;48.528;8.078;2023-04-03T00:46:10;8.40;99.90
10083;DHT22;5080;48.528;8.078;2023-04-03T00:48:40;8.30;99.90
10083;DHT22;5080;48.528;8.078;2023-04-03T00:51:09;8.30;99.90
10083;DHT22;5080;48.528;8.078;2023-04-03T00:53:41;8.20;99.90
10083;DHT22;5080;48.528;8.078;2023-04-03T00:56:10;8.20;99.90
10083;DHT22;5080;48.528;8.078;2023-04-03T00:58:42;8.20;99.90
10083;DHT22;5080;48.528;8.078;2023-04-03T01:01:14;8.20;99.90
10083;DHT22;5080;48.528;8.078;2023-04-03T01:03:42;8.20;99.90
10083;DHT22;5080;48.528;8.078;2023-04-03T01:06:09;8.20;99.90
10083;DHT22;5080;48.528;8.078;2023-04-03T01:08:36;8.20;99.90
10083;DHT22;5080;48.528;8.078;2023-04-03T01:11:03;8.10;99.90
10083;DHT22;5080;48.528;8.078;2023-04-03T01:13:32;8.10;99.90
10083;DHT22;5080;48.528;8.078;2023-04-03T01:16:02;8.20;99.90
10083;DHT22;5080;48.528;8.078;2023-04-03T01:18:29;8.20;99.90
10083;DHT22;5080;48.528;8.078;2023-04-03T01:21:19;8.20;99.90
10083;DHT22;5080;48.528;8.078;2023-04-03T01:24:08;8.30;99.90
10083;DHT22;5080;48.528;8.078;2023-04-03T01:26:37;8.20;99.90
10083;DHT22;5080;48.528;8.078;2023-04-03T01:29:05;8.20;99.90
10083;DHT22;5080;48.528;8.078;2023-04-03T01:31:44;8.20;99.90
10083;DHT22;5080;48.528;8.078;2023-04-03T01:34:11;8.20;99.90
10083;DHT22;5080;48.528;8.078;2023-04-03T01:36:38;8.30;99.90
10083;DHT22;5080;48.528;8.078;2023-04-03T01:39:05;8.20;99.90
10083;DHT22;5080;48.528;8.078;2023-04-03T01:41:32;8.20;99.90
10083;DHT22;5080;48.528;8.078;2023-04-03T01:43:59;8.20;99.90
10083;DHT22;5080;48.528;8.078;2023-04-03T01:46:26;8.30;99.90
10083;DHT22;5080;48.528;8.078;2023-04-03T01:48:54;8.20;99.90
10083;DHT22;5080;48.528;8.078;2023-04-03T01:51:21;8.30;99.90
10083;DHT22;5080;48.528;8.078;2023-04-03T01:53:48;8.20;99.90
10083;DHT22;5080;48.528;8.078;2023-04-03T01:56:14;8.20;99.90
10083;DHT22;5080;48.528;8.078;2023-04-03T01:58:41;8.30;99.90
10083;DHT22;5080;48.528;8.078;2023-04-03T02:01:08;8.20;99.90
10083;DHT22;5080;48.528;8.078;2023-04-03T02:03:35;8.10;99.90
10083;DHT22;5080;48.528;8.078;2023-04-03T02:06:04;8.10;99.90
10083;DHT22;5080;48.528;8.078;2023-04-03T02:08:31;8.10;99.90
10083;DHT22;5080;48.528;8.078;2023-04-03T02:10:58;8.00;99.90
10083;DHT22;5080;48.528;8.078;2023-04-03T02:13:24;8.00;99.90
10083;DHT22;5080;48.528;8.078;2023-04-03T02:15:51;8.00;99.90
10083;DHT22;5080;48.528;8.078;2023-04-03T02:18:18;7.90;99.90
10083;DHT22;5080;48.528;8.078;2023-04-03T02:20:46;7.90;99.90
10083;DHT22;5080;48.528;8.078;2023-04-03T02:23:14;7.90;99.90
10083;DHT22;5080;48.528;8.078;2023-04-03T02:25:41;7.90;99.90
10083;DHT22;5080;48.528;8.078;2023-04-03T02:28:08;7.80;99.90
10083;DHT22;5080;48.528;8.078;2023-04-03T02:30:35;7.70;99.90
10083;DHT22;5080;48.528;8.078;2023-04-03T02:33:02;7.60;99.90
10083;DHT22;5080;48.528;8.078;2023-04-03T02:35:29;7.50;99.90
10083;DHT22;5080;48.528;8.078;2023-04-03T02:37:55;7.50;99.90
10083;DHT22;5080;48.528;8.078;2023-04-03T02:40:24;7.50;99.90
10083;DHT22;5080;48.528;8.078;2023-04-03T02:42:50;7.50;99.90
10083;DHT22;5080;48.528;8.078;2023-04-03T02:45:17;7.50;99.90
10083;DHT22;5080;48.528;8.078;2023-04-03T02:47:44;7.50;99.90
10083;DHT22;5080;48.528;8.078;2023-04-03T02:50:11;7.60;99.90
10083;DHT22;5080;48.528;8.078;2023-04-03T02:52:38;7.60;99.90
10083;DHT22;5080;48.528;8.078;2023-04-03T02:55:05;7.60;99.90
10083;DHT22;5080;48.528;8.078;2023-04-03T02:57:34;7.30;99.90
10083;DHT22;5080;48.528;8.078;2023-04-03T03:00:01;7.10;99.90
10083;DHT22;5080;48.528;8.078;2023-04-03T03:02:28;7.20;99.90
10083;DHT22;5080;48.528;8.078;2023-04-03T03:04:55;7.20;99.90
10083;DHT22;5080;48.528;8.078;2023-04-03T03:07:22;7.30;99.90
10083;DHT22;5080;48.528;8.078;2023-04-03T03:09:48;7.30;99.90
10083;DHT22;5080;48.528;8.078;2023-04-03T03:12:15;7.30;99.90
10083;DHT22;5080;48.528;8.078;2023-04-03T03:14:48;7.30;99.90
10083;DHT22;5080;48.528;8.078;2023-04-03T03:17:15;7.30;99.90
10083;DHT22;5080;48.528;8.078;2023-04-03T03:19:42;7.30;99.90
10083;DHT22;5080;48.528;8.078;2023-04-03T03:22:09;7.20;99.90
10083;DHT22;5080;48.528;8.078;2023-04-03T03:24:35;7.20;99.90
10083;DHT22;5080;48.528;8.078;2023-04-03T03:27:02;7.20;99.90
10083;DHT22;5080;48.528;8.078;2023-04-03T03:29:29;7.20;99.90
10083;DHT22;5080;48.528;8.078;2023-04-03T03:31:57;7.10;99.90
10083;DHT22;5080;48.528;8.078;2023-04-03T03:34:24;7.10;99.90
10083;DHT22;5080;48.528;8.078;2023-04-03T03:36:51;7.10;99.90
10083;DHT22;5080;48.528;8.078;2023-04-03T03:39:18;7.00;99.90
10083;DHT22;5080;48.528;8.078;2023-04-03T03:41:44;7.00;99.90
10083;DHT22;5080;48.528;8.078;2023-04-03T03:44:11;7.00;99.90
10083;DHT22;5080;48.528;8.078;2023-04-03T03:46:38;7.00;99.90
10083;DHT22;5080;48.528;8.078;2023-04-03T03:49:06;7.00;99.90
10083;DHT22;5080;48.528;8.078;2023-04-03T03:51:33;7.00;99.90
10083;DHT22;5080;48.528;8.078;2023-04-03T03:54:00;7.10;99.90
10083;DHT22;5080;48.528;8.078;2023-04-03T03:56:27;6.90;99.90
10083;DHT22;5080;48.528;8.078;2023-04-03T03:58:53;6.90;99.90
10083;DHT22;5080;48.528;8.078;2023-04-03T04:01:22;6.80;99.90
10083;DHT22;5080;48.528;8.078;2023-04-03T04:03:48;6.80;99.90
10083;DHT22;5080;48.528;8.078;2023-04-03T04:06:17;6.80;99.90
10083;DHT22;5080;48.528;8.078;2023-04-03T04:08:43;6.70;99.90
10083;DHT22;5080;48.528;8.078;2023-04-03T04:11:10;6.70;99.90
10083;DHT22;5080;48.528;8.078;2023-04-03T04:13:37;6.60;99.90
10083;DHT22;5080;48.528;8.078;2023-04-03T04:16:05;6.60;99.90
10083;DHT22;5080;48.528;8.078;2023-04-03T04:18:31;6.60;99.90
10083;DHT22;5080;48.528;8.078;2023-04-03T04:20:58;6.60;99.90
10083;DHT22;5080;48.528;8.078;2023-04-03T04:23:27;6.50;99.90
10083;DHT22;5080;48.528;8.078;2023-04-03T04:25:53;6.50;99.90
10083;DHT22;5080;48.528;8.078;2023-04-03T04:28:20;6.50;99.90
10083;DHT22;5080;48.528;8.078;2023-04-03T04:30:47;6.40;99.90
10083;DHT22;5080;48.528;8.078;2023-04-03T04:33:14;6.40;99.90
10083;DHT22;5080;48.528;8.078;2023-04-03T04:35:42;6.40;99.90
10083;DHT22;5080;48.528;8.078;2023-04-03T04:38:09;6.30;99.90
10083;DHT22;5080;48.528;8.078;2023-04-03T04:40:37;6.30;99.90
10083;DHT22;5080;48.528;8.078;2023-04-03T04:43:04;6.30;99.90
10083;DHT22;5080;48.528;8.078;2023-04-03T04:45:31;6.20;99.90
10083;DHT22;5080;48.528;8.078;2023-04-03T04:47:57;6.20;99.90
10083;DHT22;5080;48.528;8.078;2023-04-03T04:50:24;6.20;99.90
10083;DHT22;5080;48.528;8.078;2023-04-03T04:52:51;6.20;99.90
10083;DHT22;5080;48.528;8.078;2023-04-03T04:55:19;6.10;99.90
10083;DHT22;5080;48.528;8.078;2023-04-03T04:57:47;6.10;99.90
10083;DHT22;5080;48.528;8.078;2023-04-03T05:00:15;6.10;99.90
10083;DHT22;5080;48.528;8.078;2023-04-03T05:02:42;6.10;99.90
10083;DHT22;5080;48.528;8.078;2023-04-03T05:05:09;6.20;99.90
10083;DHT22;5080;48.528;8.078;2023-04-03T05:07:36;6.10;99.90
10083;DHT22;5080;48.528;8.078;2023-04-03T05:10:03;6.00;99.90
10083;DHT22;5080;48.528;8.078;2023-04-03T05:12:30;6.00;99.90
10083;DHT22;5080;48.528;8.078;2023-04-03T05:14:58;5.90;99.90
10083;DHT22;5080;48.528;8.078;2023-04-03T05:17:25;5.90;99.90
10083;DHT22;5080;48.528;8.078;2023-04-03T05:19:52;5.90;99.90
10083;DHT22;5080;48.528;8.078;2023-04-03T05:22:18;6.00;99.90
10083;DHT22;5080;48.528;8.078;2023-04-03T05:24:45;6.00;99.90
10083;DHT22;5080;48.528;8.078;2023-04-03T05:27:12;6.00;99.90
10083;DHT22;5080;48.528;8.078;2023-04-03T05:29:39;6.00;99.90
10083;DHT22;5080;48.528;8.078;2023-04-03T05:32:10;6.10;99.90
10083;DHT22;5080;48.528;8.078;2023-04-03T05:34:37;6.00;99.90
10083;DHT22;5080;48.528;8.078;2023-04-03T05:37:04;5.90;99.90
10083;DHT22;5080;48.528;8.078;2023-04-03T05:39:31;5.80;99.90
10083;DHT22;5080;48.528;8.078;2023-04-03T05:41:58;5.80;99.90
10083;DHT22;5080;48.528;8.078;2023-04-03T05:44:25;5.90;99.90
10083;DHT22;5080;48.528;8.078;2023-04-03T05:46:51;5.90;99.90
10083;DHT22;5080;48.528;8.078;2023-04-03T05:49:20;5.90;99.90
10083;DHT22;5080;48.528;8.078;2023-04-03T05:51:46;6.00;99.90
10083;DHT22;5080;48.528;8.078;2023-04-03T05:54:17;6.00;99.90
10083;DHT22;5080;48.528;8.078;2023-04-03T05:56:45;6.00;99.90
10083;DHT22;5080;48.528;8.078;2023-04-03T05:59:11;6.10;99.90
10083;DHT22;5080;48.528;8.078;2023-04-03T06:01:38;6.10;99.90
10083;DHT22;5080;48.528;8.078;2023-04-03T06:04:06;6.10;99.90
10083;DHT22;5080;48.528;8.078;2023-04-03T06:06:46;6.10;99.90
10083;DHT22;5080;48.528;8.078;2023-04-03T06:09:14;6.20;99.90
10083;DHT22;5080;48.528;8.078;2023-04-03T06:11:41;6.30;99.90
10083;DHT22;5080;48.528;8.078;2023-04-03T06:14:08;6.30;99.90
10083;DHT22;5080;48.528;8.078;2023-04-03T06:16:35;6.40;99.90
10083;DHT22;5080;48.528;8.078;2023-04-03T06:19:02;6.50;99.90
10083;DHT22;5080;48.528;8.078;2023-04-03T06:21:29;6.60;99.90
10083;DHT22;5080;48.528;8.078;2023-04-03T06:23:58;6.70;99.90
10083;DHT22;5080;48.528;8.078;2023-04-03T06:26:24;6.80;99.90
10083;DHT22;5080;48.528;8.078;2023-04-03T06:28:51;6.80;99.90
10083;DHT22;5080;48.528;8.078;2023-04-03T06:31:18;6.80;99.90
10083;DHT22;5080;48.528;8.078;2023-04-03T06:33:45;6.90;99.90
10083;DHT22;5080;48.528;8.078;2023-04-03T06:36:12;6.90;99.90
10083;DHT22;5080;48.528;8.078;2023-04-03T06:38:39;6.90;99.90
10083;DHT22;5080;48.528;8.078;2023-04-03T06:41:07;7.00;99.90
10083;DHT22;5080;48.528;8.078;2023-04-03T06:43:34;7.00;99.90
10083;DHT22;5080;48.528;8.078;2023-04-03T06:46:01;7.00;99.90
10083;DHT22;5080;48.528;8.078;2023-04-03T06:48:28;7.00;99.90
10083;DHT22;5080;48.528;8.078;2023-04-03T06:50:56;7.10;99.90
10083;DHT22;5080;48.528;8.078;2023-04-03T06:53:23;7.20;99.90
10083;DHT22;5080;48.528;8.078;2023-04-03T06:55:50;7.20;99.90
10083;DHT22;5080;48.528;8.078;2023-04-03T06:58:18;7.20;99.90
10083;DHT22;5080;48.528;8.078;2023-04-03T07:00:45;7.20;99.90
10083;DHT22;5080;48.528;8.078;2023-04-03T07:03:12;7.10;99.90
10083;DHT22;5080;48.528;8.078;2023-04-03T07:05:39;7.20;99.90
10083;DHT22;5080;48.528;8.078;2023-04-03T07:08:08;7.30;99.90
10083;DHT22;5080;48.528;8.078;2023-04-03T07:10:35;7.50;99.90
10083;DHT22;5080;48.528;8.078;2023-04-03T07:13:01;7.50;99.90
10083;DHT22;5080;48.528;8.078;2023-04-03T07:15:30;7.60;99.90
10083;DHT22;5080;48.528;8.078;2023-04-03T07:17:57;7.60;99.90
10083;DHT22;5080;48.528;8.078;2023-04-03T07:20:23;7.60;99.90
10083;DHT22;5080;48.528;8.078;2023-04-03T07:22:50;7.60;99.90
10083;DHT22;5080;48.528;8.078;2023-04-03T07:25:17;7.60;99.90
10083;DHT22;5080;48.528;8.078;2023-04-03T07:27:44;7.60;99.90
10083;DHT22;5080;48.528;8.078;2023-04-03T07:30:11;7.70;99.90
10083;DHT22;5080;48.528;8.078;2023-04-03T07:32:40;7.60;99.90
10083;DHT22;5080;48.528;8.078;2023-04-03T07:35:08;7.80;99.90
10083;DHT22;5080;48.528;8.078;2023-04-03T07:37:34;7.90;99.90
10083;DHT22;5080;48.528;8.078;2023-04-03T07:40:02;7.90;99.90
10083;DHT22;5080;48.528;8.078;2023-04-03T07:42:30;7.90;99.90
10083;DHT22;5080;48.528;8.078;2023-04-03T07:44:57;7.70;99.90
10083;DHT22;5080;48.528;8.078;2023-04-03T07:47:24;7.70;99.90
10083;DHT22;5080;48.528;8.078;2023-04-03T07:49:52;7.80;99.90
10083;DHT22;5080;48.528;8.078;2023-04-03T07:52:19;7.70;99.90
10083;DHT22;5080;48.528;8.078;2023-04-03T07:54:46;7.60;99.90
10083;DHT22;5080;48.528;8.078;2023-04-03T07:57:13;7.80;99.90
10083;DHT22;5080;48.528;8.078;2023-04-03T07:59:40;7.80;99.90
10083;DHT22;5080;48.528;8.078;2023-04-03T08:02:09;7.70;99.90
10083;DHT22;5080;48.528;8.078;2023-04-03T08:04:36;7.80;99.90
10083;DHT22;5080;48.528;8.078;2023-04-03T08:07:04;7.70;99.90
10083;DHT22;5080;48.528;8.078;2023-04-03T08:09:31;7.80;99.90
10083;DHT22;5080;48.528;8.078;2023-04-03T08:11:58;7.80;99.90
10083;DHT22;5080;48.528;8.078;2023-04-03T08:14:25;7.70;99.90
10083;DHT22;5080;48.528;8.078;2023-04-03T08:16:52;7.70;99.90
10083;DHT22;5080;48.528;8.078;2023-04-03T08:19:19;7.80;99.90
10083;DHT22;5080;48.528;8.078;2023-04-03T08:21:45;7.80;99.90
10083;DHT22;5080;48.528;8.078;2023-04-03T08:24:14;7.90;99.90
10083;DHT22;5080;48.528;8.078;2023-04-03T08:26:40;8.00;99.90
10083;DHT22;5080;48.528;8.078;2023-04-03T08:29:07;7.80;99.90
10083;DHT22;5080;48.528;8.078;2023-04-03T08:31:34;7.90;99.90
10083;DHT22;5080;48.528;8.078;2023-04-03T08:34:02;8.00;99.90
10083;DHT22;5080;48.528;8.078;2023-04-03T08:36:29;8.10;99.90
10083;DHT22;5080;48.528;8.078;2023-04-03T08:38:56;8.30;99.90
10083;DHT22;5080;48.528;8.078;2023-04-03T08:41:31;8.30;99.90
10083;DHT22;5080;48.528;8.078;2023-04-03T08:44:14;8.70;99.90
10083;DHT22;5080;48.528;8.078;2023-04-03T08:46:58;8.80;99.90
10083;DHT22;5080;48.528;8.078;2023-04-03T08:49:30;8.90;99.90
10083;DHT22;5080;48.528;8.078;2023-04-03T08:52:00;9.10;99.90
10083;DHT22;5080;48.528;8.078;2023-04-03T08:54:32;9.30;99.90
10083;DHT22;5080;48.528;8.078;2023-04-03T08:57:03;9.30;99.90
10083;DHT22;5080;48.528;8.078;2023-04-03T08:59:33;9.40;99.90
10083;DHT22;5080;48.528;8.078;2023-04-03T09:02:03;9.90;99.90
10083;DHT22;5080;48.528;8.078;2023-04-03T09:04:32;9.90;99.90
10083;DHT22;5080;48.528;8.078;2023-04-03T09:07:04;10.20;99.90
10083;DHT22;5080;48.528;8.078;2023-04-03T09:09:35;10.10;99.90
10083;DHT22;5080;48.528;8.078;2023-04-03T09:12:15;10.10;99.90
10083;DHT22;5080;48.528;8.078;2023-04-03T09:14:49;9.90;99.90
10083;DHT22;5080;48.528;8.078;2023-04-03T09:17:24;9.90;99.90
10083;DHT22;5080;48.528;8.078;2023-04-03T09:19:58;9.80;99.90
10083;DHT22;5080;48.528;8.078;2023-04-03T09:22:31;9.60;99.90
10083;DHT22;5080;48.528;8.078;2023-04-03T09:25:04;9.60;99.90
10083;DHT22;5080;48.528;8.078;2023-04-03T09:27:34;9.50;99.90
10083;DHT22;5080;48.528;8.078;2023-04-03T09:30:02;9.40;99.90
10083;DHT22;5080;48.528;8.078;2023-04-03T09:32:31;9.50;99.90
10083;DHT22;5080;48.528;8.078;2023-04-03T09:35:02;9.60;99.90
10083;DHT22;5080;48.528;8.078;2023-04-03T09:37:38;9.70;99.90
10083;DHT22;5080;48.528;8.078;2023-04-03T09:40:28;9.50;99.90
10083;DHT22;5080;48.528;8.078;2023-04-03T09:42:57;9.40;99.90
10083;DHT22;5080;48.528;8.078;2023-04-03T09:45:27;9.40;99.90
10083;DHT22;5080;48.528;8.078;2023-04-03T09:48:06;9.50;99.90
10083;DHT22;5080;48.528;8.078;2023-04-03T09:50:34;9.60;99.90
10083;DHT22;5080;48.528;8.078;2023-04-03T09:53:05;9.60;99.90
10083;DHT22;5080;48.528;8.078;2023-04-03T09:55:42;9.60;99.90
10083;DHT22;5080;48.528;8.078;2023-04-03T09:58:24;9.90;99.90
10083;DHT22;5080;48.528;8.078;2023-04-03T10:00:54;10.10;99.90
10083;DHT22;5080;48.528;8.078;2023-04-03T10:03:25;10.00;99.90
10083;DHT22;5080;48.528;8.078;2023-04-03T10:05:52;10.00;99.90
10083;DHT22;5080;48.528;8.078;2023-04-03T10:08:23;9.90;99.90
10083;DHT22;5080;48.528;8.078;2023-04-03T10:11:10;10.00;99.90
10083;DHT22;5080;48.528;8.078;2023-04-03T10:13:50;10.10;99.90
10083;DHT22;5080;48.528;8.078;2023-04-03T10:16:19;10.00;99.90
10083;DHT22;5080;48.528;8.078;2023-04-03T10:18:58;9.90;99.90
10083;DHT22;5080;48.528;8.078;2023-04-03T10:21:35;10.20;99.90
10083;DHT22;5080;48.528;8.078;2023-04-03T10:24:11;10.10;99.90
10083;DHT22;5080;48.528;8.078;2023-04-03T10:26:46;9.90;99.90
10083;DHT22;5080;48.528;8.078;2023-04-03T10:29:33;9.90;99.90
10083;DHT22;5080;48.528;8.078;2023-04-03T10:32:15;10.00;99.90
10083;DHT22;5080;48.528;8.078;2023-04-03T10:34:47;10.20;99.90
10083;DHT22;5080;48.528;8.078;2023-04-03T10:37:22;10.40;99.90
10083;DHT22;5080;48.528;8.078;2023-04-03T10:39:53;10.40;99.90
10083;DHT22;5080;48.528;8.078;2023-04-03T10:42:28;10.30;99.90
10083;DHT22;5080;48.528;8.078;2023-04-03T10:45:15;10.40;99.90
10083;DHT22;5080;48.528;8.078;2023-04-03T10:47:55;10.50;99.90
10083;DHT22;5080;48.528;8.078;2023-04-03T10:50:31;10.40;99.90
10083;DHT22;5080;48.528;8.078;2023-04-03T10:53:10;10.30;99.90
10083;DHT22;5080;48.528;8.078;2023-04-03T10:55:44;10.20;99.90
10083;DHT22;5080;48.528;8.078;2023-04-03T10:58:18;10.10;99.90
10083;DHT22;5080;48.528;8.078;2023-04-03T11:00:50;10.20;99.90
10083;DHT22;5080;48.528;8.078;2023-04-03T11:03:27;10.30;99.90
10083;DHT22;5080;48.528;8.078;2023-04-03T11:05:59;10.30;99.90
10083;DHT22;5080;48.528;8.078;2023-04-03T11:08:31;10.20;99.90
10083;DHT22;5080;48.528;8.078;2023-04-03T11:11:03;10.30;99.90
10083;DHT22;5080;48.528;8.078;2023-04-03T11:13:34;10.30;99.90
10083;DHT22;5080;48.528;8.078;2023-04-03T11:16:04;10.20;99.90
10083;DHT22;5080;48.528;8.078;2023-04-03T11:18:35;9.90;99.90
10083;DHT22;5080;48.528;8.078;2023-04-03T11:21:07;9.90;99.90
10083;DHT22;5080;48.528;8.078;2023-04-03T11:23:37;9.90;99.90
10083;DHT22;5080;48.528;8.078;2023-04-03T11:26:09;10.00;99.90
10083;DHT22;5080;48.528;8.078;2023-04-03T11:28:37;10.10;99.90
10083;DHT22;5080;48.528;8.078;2023-04-03T11:31:14;10.20;99.90
10083;DHT22;5080;48.528;8.078;2023-04-03T11:33:48;10.40;99.90
10083;DHT22;5080;48.528;8.078;2023-04-03T11:36:21;10.40;99.90
10083;DHT22;5080;48.528;8.078;2023-04-03T11:38:49;10.30;99.90
10083;DHT22;5080;48.528;8.078;2023-04-03T11:41:25;10.10;99.90
10083;DHT22;5080;48.528;8.078;2023-04-03T11:43:57;10.10;99.90
10083;DHT22;5080;48.528;8.078;2023-04-03T11:46:50;10.30;99.90
10083;DHT22;5080;48.528;8.078;2023-04-03T11:49:52;10.20;99.90
10083;DHT22;5080;48.528;8.078;2023-04-03T11:52:55;10.10;99.90
10083;DHT22;5080;48.528;8.078;2023-04-03T11:55:52;10.30;99.90
10083;DHT22;5080;48.528;8.078;2023-04-03T11:58:21;10.40;99.90
10083;DHT22;5080;48.528;8.078;2023-04-03T12:00:53;10.40;99.90
10083;DHT22;5080;48.528;8.078;2023-04-03T12:03:32;10.40;99.90
10083;DHT22;5080;48.528;8.078;2023-04-03T12:09:26;10.10;99.90
10083;DHT22;5080;48.528;8.078;2023-04-03T12:11:53;10.00;99.90
10083;DHT22;5080;48.528;8.078;2023-04-03T12:14:23;10.10;99.90
10083;DHT22;5080;48.528;8.078;2023-04-03T12:16:52;10.00;99.90
10083;DHT22;5080;48.528;8.078;2023-04-03T12:19:37;10.10;99.90
10083;DHT22;5080;48.528;8.078;2023-04-03T12:22:16;10.30;99.90
10083;DHT22;5080;48.528;8.078;2023-04-03T12:24:47;10.40;99.90
10083;DHT22;5080;48.528;8.078;2023-04-03T12:27:28;10.50;99.90
10083;DHT22;5080;48.528;8.078;2023-04-03T12:30:07;10.60;99.90
10083;DHT22;5080;48.528;8.078;2023-04-03T12:32:58;10.80;99.90
10083;DHT22;5080;48.528;8.078;2023-04-03T12:35:34;10.80;99.90
10083;DHT22;5080;48.528;8.078;2023-04-03T12:38:30;11.00;99.90
10083;DHT22;5080;48.528;8.078;2023-04-03T12:47:22;10.80;99.90
10083;DHT22;5080;48.528;8.078;2023-04-03T12:49:49;10.90;99.90
10083;DHT22;5080;48.528;8.078;2023-04-03T12:52:28;10.90;99.90
10083;DHT22;5080;48.528;8.078;2023-04-03T12:54:56;10.90;99.90
10083;DHT22;5080;48.528;8.078;2023-04-03T12:57:25;10.80;99.90
10083;DHT22;5080;48.528;8.078;2023-04-03T12:59:53;10.80;99.90
10083;DHT22;5080;48.528;8.078;2023-04-03T13:02:23;10.90;99.90
10083;DHT22;5080;48.528;8.078;2023-04-03T13:04:53;10.90;99.90
10083;DHT22;5080;48.528;8.078;2023-04-03T13:07:24;10.90;99.90
10083;DHT22;5080;48.528;8.078;2023-04-03T13:09:58;10.80;99.90
10083;DHT22;5080;48.528;8.078;2023-04-03T13:12:25;10.70;99.90
10083;DHT22;5080;48.528;8.078;2023-04-03T13:14:53;10.80;99.90
10083;DHT22;5080;48.528;8.078;2023-04-03T13:17:21;10.80;99.90
10083;DHT22;5080;48.528;8.078;2023-04-03T13:19:48;10.60;99.90
10083;DHT22;5080;48.528;8.078;2023-04-03T13:22:25;10.40;99.90
10083;DHT22;5080;48.528;8.078;2023-04-03T13:24:54;10.40;99.90
10083;DHT22;5080;48.528;8.078;2023-04-03T13:27:22;10.60;99.90
10083;DHT22;5080;48.528;8.078;2023-04-03T13:29:50;10.70;99.90
10083;DHT22;5080;48.528;8.078;2023-04-03T13:32:20;10.60;99.90
10083;DHT22;5080;48.528;8.078;2023-04-03T13:34:48;10.70;99.90
10083;DHT22;5080;48.528;8.078;2023-04-03T13:37:23;10.60;99.90
10083;DHT22;5080;48.528;8.078;2023-04-03T13:40:00;10.50;99.90
10083;DHT22;5080;48.528;8.078;2023-04-03T13:42:30;10.70;99.90
10083;DHT22;5080;48.528;8.078;2023-04-03T13:45:10;10.50;99.90
10083;DHT22;5080;48.528;8.078;2023-04-03T13:47:39;10.60;99.90
10083;DHT22;5080;48.528;8.078;2023-04-03T13:50:15;10.50;99.90
10083;DHT22;5080;48.528;8.078;2023-04-03T13:52:45;10.60;99.90
10083;DHT22;5080;48.528;8.078;2023-04-03T13:55:20;10.50;99.90
10083;DHT22;5080;48.528;8.078;2023-04-03T13:57:53;10.50;99.90
10083;DHT22;5080;48.528;8.078;2023-04-03T14:00:33;10.40;99.90
10083;DHT22;5080;48.528;8.078;2023-04-03T14:03:00;10.30;99.90
10083;DHT22;5080;48.528;8.078;2023-04-03T14:05:27;10.10;99.90
10083;DHT22;5080;48.528;8.078;2023-04-03T14:07:54;10.10;99.90
10083;DHT22;5080;48.528;8.078;2023-04-03T14:10:23;10.20;99.90
10083;DHT22;5080;48.528;8.078;2023-04-03T14:12:50;10.20;99.90
10083;DHT22;5080;48.528;8.078;2023-04-03T14:15:22;10.30;99.90
10083;DHT22;5080;48.528;8.078;2023-04-03T14:17:50;10.30;99.90
10083;DHT22;5080;48.528;8.078;2023-04-03T14:20:20;10.20;99.90
10083;DHT22;5080;48.528;8.078;2023-04-03T14:22:48;10.30;99.90
10083;DHT22;5080;48.528;8.078;2023-04-03T14:25:17;10.20;99.90
10083;DHT22;5080;48.528;8.078;2023-04-03T14:27:48;10.00;99.90
10083;DHT22;5080;48.528;8.078;2023-04-03T14:30:18;10.10;99.90
10083;DHT22;5080;48.528;8.078;2023-04-03T14:32:45;10.00;99.90
10083;DHT22;5080;48.528;8.078;2023-04-03T14:35:13;9.60;99.90
10083;DHT22;5080;48.528;8.078;2023-04-03T14:37:40;9.70;99.90
10083;DHT22;5080;48.528;8.078;2023-04-03T14:40:11;9.80;99.90
10083;DHT22;5080;48.528;8.078;2023-04-03T14:42:39;9.90;99.90
10083;DHT22;5080;48.528;8.078;2023-04-03T14:45:09;10.30;99.90
10083;DHT22;5080;48.528;8.078;2023-04-03T14:47:40;10.50;99.90
10083;DHT22;5080;48.528;8.078;2023-04-03T14:50:13;10.80;99.90
10083;DHT22;5080;48.528;8.078;2023-04-03T14:52:41;10.90;99.90
10083;DHT22;5080;48.528;8.078;2023-04-03T14:55:08;10.90;99.90
10083;DHT22;5080;48.528;8.078;2023-04-03T14:57:35;10.80;99.90
10083;DHT22;5080;48.528;8.078;2023-04-03T15:00:03;10.60;99.90
10083;DHT22;5080;48.528;8.078;2023-04-03T15:02:33;10.30;99.90
10083;DHT22;5080;48.528;8.078;2023-04-03T15:05:02;10.30;99.90
10083;DHT22;5080;48.528;8.078;2023-04-03T15:07:31;10.30;99.90
10083;DHT22;5080;48.528;8.078;2023-04-03T15:09:59;10.10;99.90
10083;DHT22;5080;48.528;8.078;2023-04-03T15:12:27;10.10;99.90
10083;DHT22;5080;48.528;8.078;2023-04-03T15:14:54;10.00;99.90
10083;DHT22;5080;48.528;8.078;2023-04-03T15:17:22;9.80;99.90
10083;DHT22;5080;48.528;8.078;2023-04-03T15:19:50;9.80;99.90
10083;DHT22;5080;48.528;8.078;2023-04-03T15:22:18;9.90;99.90
10083;DHT22;5080;48.528;8.078;2023-04-03T15:24:45;10.10;99.90
10083;DHT22;5080;48.528;8.078;2023-04-03T15:27:13;10.40;99.90
10083;DHT22;5080;48.528;8.078;2023-04-03T15:29:42;10.70;99.90
10083;DHT22;5080;48.528;8.078;2023-04-03T15:32:09;10.90;99.90
10083;DHT22;5080;48.528;8.078;2023-04-03T15:34:36;10.80;99.90
10083;DHT22;5080;48.528;8.078;2023-04-03T15:37:04;10.80;99.90
10083;DHT22;5080;48.528;8.078;2023-04-03T15:39:31;10.90;99.90
10083;DHT22;5080;48.528;8.078;2023-04-03T15:41:59;10.90;99.90
10083;DHT22;5080;48.528;8.078;2023-04-03T15:44:32;10.60;99.90
10083;DHT22;5080;48.528;8.078;2023-04-03T15:46:59;10.50;99.90
10083;DHT22;5080;48.528;8.078;2023-04-03T15:49:26;10.20;99.90
10083;DHT22;5080;48.528;8.078;2023-04-03T15:51:53;9.90;99.90
10083;DHT22;5080;48.528;8.078;2023-04-03T15:54:21;10.00;99.90
10083;DHT22;5080;48.528;8.078;2023-04-03T15:56:50;10.20;99.90
10083;DHT22;5080;48.528;8.078;2023-04-03T15:59:17;10.30;99.90
10083;DHT22;5080;48.528;8.078;2023-04-03T16:01:44;10.50;99.90
10083;DHT22;5080;48.528;8.078;2023-04-03T16:04:11;10.70;99.90
10083;DHT22;5080;48.528;8.078;2023-04-03T16:06:39;10.80;99.90
10083;DHT22;5080;48.528;8.078;2023-04-03T16:09:06;10.80;99.90
10083;DHT22;5080;48.528;8.078;2023-04-03T16:11:35;10.60;99.90
10083;DHT22;5080;48.528;8.078;2023-04-03T16:14:04;10.60;99.90
10083;DHT22;5080;48.528;8.078;2023-04-03T16:16:31;10.50;99.90
10083;DHT22;5080;48.528;8.078;2023-04-03T16:18:59;10.40;99.90
10083;DHT22;5080;48.528;8.078;2023-04-03T16:21:27;10.50;99.90
10083;DHT22;5080;48.528;8.078;2023-04-03T16:23:56;10.40;99.90